Black Park parkrun # 451 - 13/01/2018

PosparkrunnerTimeAge CatAge GradeGender PosClubNoteTotal Runs
1Charlie EDWARDS17:46SM20-2473.36 %M1New PB!166Member of the parkrun 100 Club
2Jacob MCADAM17:58SM18-1973.38 %M2Cirencester ACPB stays at 00:17:35223Member of the parkrun 100 ClubStrava logo
3Dean CHILDS18:58SM30-3468.54 %M3Burnham JoggersNew PB!30Strava logo
4Shaun LAZZARI19:17SM25-2966.98 %M4PB stays at 00:19:0948
5Asantha WIJETUNGE19:37SM30-3466.10 %M5PB stays at 00:19:2124
6Mark VOGLER19:53VM35-3967.14 %M6Hillingdon TriathletesPB stays at 00:18:18146Member of the parkrun 100 ClubStrava logo
7Simon HART19:55VM35-3967.53 %M7PB stays at 00:19:5441Strava logo
8Alan DORRICOTT20:03VM50-5475.39 %M8PB stays at 00:19:2495Member of the parkrun 50 Club
9Unknown
10Christian O'BRIEN20:22SM20-2463.99 %M10First Timer!2
11Richard ELLIOTT20:23SM30-3464.02 %M11Hillingdon TriathletesPB stays at 00:19:30157Member of the parkrun 100 Club
12Mark DAVIES20:25VM40-4466.86 %M12PB stays at 00:19:2328
13Stephen MCALISTER20:29VM50-5474.37 %M13Hillingdon TriathletesPB stays at 00:18:45248Member of the parkrun 100 Club
14Steve PARSONS20:33VM50-5473.56 %M14PB stays at 00:18:34351Member of the parkrun 250 Club
15Darren COMPSON20:35VM35-3964.86 %M15New PB!5
16John COBB20:43VM60-6478.76 %M16Windsor, Slough, Eton & Hounslow ACPB stays at 00:18:54288Member of the parkrun 250 Club
17Gareth WALTERS20:46VM40-4465.73 %M17PB stays at 00:19:4965Member of the parkrun 50 Club
18Joe BEECH20:47JM11-1468.24 %M18New PB!23Member of the parkrun 10 Club
19Alex MOORE20:51VM35-3964.51 %M19PB stays at 00:20:2290Member of the parkrun 50 Club
20Michael HILL21:01VM60-6479.06 %M20Datchet DashersPB stays at 00:19:11166Member of the parkrun 100 Club
21Richard DIGGENS21:03VM40-4464.85 %M21PB stays at 00:20:0319
22Ben Peter HAGREEN21:06SM30-3462.16 %M22PB stays at 00:18:4743
23Colin OLIVER21:11VM35-3963.97 %M23New PB!4
24Robin SMITH21:23VM55-5974.36 %M24Datchet DashersPB stays at 00:19:1926
25Steve HORSFIELD21:23VM45-4966.80 %M25PB stays at 00:19:43179Member of the parkrun 100 Club
26Michael DYER21:26VM55-5972.94 %M26PB stays at 00:20:02242Member of the parkrun 100 ClubStrava logo
27Harbhajan DHILLON21:27VM55-5973.50 %M27PB stays at 00:20:49210Member of the parkrun 100 Club
28Ashley WILKIE21:30SM20-2460.00 %M28PB stays at 00:20:4222Strava logo
29Liz LEE21:36VW45-4975.00 %F1PB stays at 00:21:06123Member of the parkrun 100 Club
30Guy RATCLIFFE21:37VM45-4966.62 %M29Datchet DashersPB stays at 00:20:00121Member of the parkrun 100 ClubStrava logo
31Stuart ARMSTRONG21:38VM55-5973.50 %M30Datchet DashersPB stays at 00:20:5537
32Peter DUCKWORTH21:42VM45-4966.36 %M31PB stays at 00:19:5766Member of the parkrun 50 Club
33Callum GALE21:43SM25-2959.40 %M32PB stays at 00:21:4222
34Paul LAWES21:45VM40-4464.67 %M33PB stays at 00:20:55133Member of the parkrun 100 Club
35Steve OWEN21:51VM45-4965.90 %M34PB stays at 00:21:07149Member of the parkrun 100 Club
36Unknown
37Fred CLARK22:01SM30-3458.74 %M36PB stays at 00:19:57113Member of the parkrun 100 Club
38Imran KHAN22:13SM30-3458.74 %M37First Timer!1Strava logo
39Alfie BOWERS22:14JM11-1468.82 %M38New PB!4
40Martin BLAKE22:14VM40-4462.29 %M39PB stays at 00:21:25103Member of the parkrun 100 Club
41Jarryd HILLHOUSE22:16SM25-2957.93 %M40Ranelagh HarriersFirst Timer!59Member of the parkrun 50 Club
42Paul ASHBY22:17VM50-5467.24 %M41Datchet DashersPB stays at 00:20:16277Member of the parkrun 250 Club
43Unknown
44Simon POPLE22:28VM55-5970.77 %M43PB stays at 00:21:39130Member of the parkrun 100 ClubStrava logo
45Mick PROWTING22:29VM50-5467.75 %M44Hillingdon TriathletesPB stays at 00:21:4414
46Unknown
47Robert SILK22:32SM30-3458.21 %M46First Timer!1
48Abby STOCKWELL22:34JW11-1470.75 %F2New PB!23Member of the parkrun 10 Club
49Kyle CROWE22:37SM18-1958.29 %M47New PB!2
50Wim NUYTS22:40VM55-5968.38 %M48PB stays at 00:21:04101Member of the parkrun 100 Club
51Unknown
52Jacek KRAKOWIAK22:46VM35-3959.52 %M50PB stays at 00:21:5851Member of the parkrun 50 Club
53Unknown
54Marco SERAFIM22:48SM30-3457.53 %M52PB stays at 00:20:0636
55Ricardo PASSOS22:49VM40-4461.21 %M53PB stays at 00:21:4326
56Toby ROBINSON22:51VM50-5465.57 %M54PB stays at 00:21:58134Member of the parkrun 100 Club
57John HUTCHINS22:56VM55-5967.59 %M55PB stays at 00:21:4462Member of the parkrun 50 Club
58Nigel WRIGHT22:56VM55-5969.33 %M56PB stays at 00:21:31108Member of the parkrun 100 Club
59Lewis HAWES22:58SM25-2956.17 %M57PB stays at 00:21:3111
60Frank FOGARTY22:59VM60-6470.99 %M58PB stays at 00:22:1850Member of the parkrun 50 Club
61Jeremy LOCKETT23:00VM55-5969.13 %M59Maidenhead ACPB stays at 00:20:57321Member of the parkrun 250 Club
62Aj WALLACE23:01SM30-3456.19 %M60PB stays at 00:21:1534
63Lee DANKS23:04VM35-3957.88 %M61New PB!3
64Richard GOBLE23:04VM60-6469.51 %M62PB stays at 00:21:4793Member of the parkrun 50 Club
65Thomas RICE23:06SM30-3456.28 %M63New PB!5
66James BUTTERWORTH23:07SM20-2455.80 %M64New PB!32
67Paul HODGKINSON23:09VM50-5464.22 %M65PB stays at 00:21:32146Member of the parkrun 100 Club
68George WESTLAKE23:13SM20-2455.56 %M66First Timer!2
69Simon MARKS23:15SM25-2955.56 %M67PB stays at 00:22:5799Member of the parkrun 50 Club
70Robert GRIFFIN23:17VM35-3958.20 %M68PB stays at 00:20:5242
71Lloyd Temple CAMP23:18VM55-5965.95 %M69PB stays at 00:22:09146Member of the parkrun 100 ClubStrava logo
72Stewart PARK23:22SM20-2455.21 %M70Hillingdon TriathletesPB stays at 00:20:1221
73Owen RATCLIFFE23:24JM11-1460.61 %M71New PB!46Member of the parkrun 10 Club
74John Richard Palmer DALTON23:27VM55-5966.10 %M72Thames Valley Orienteering ClubPB stays at 00:22:0558Member of the parkrun 50 Club
75Stuart Paul WILSON23:28VM50-5464.42 %M73PB stays at 00:22:00192Member of the parkrun 100 Club
76Alex OLD23:30JM15-1757.45 %M74PB stays at 00:23:0617Member of the parkrun 10 Club
77Sam BALDOCK23:33SM20-2454.78 %M75New PB!2Strava logo
78Michael BURNETT23:42VM45-4959.85 %M76Hillingdon TriathletesPB stays at 00:21:58117Member of the parkrun 100 ClubStrava logo
79Kate CONIBERE23:44SW30-3462.50 %F3Hillingdon TriathletesPB stays at 00:23:3125
80Mark BOWERS23:47VM45-4960.55 %M77PB stays at 00:22:579
81Darren PERKINS23:52VM40-4458.94 %M78PB stays at 00:22:39105Member of the parkrun 100 Club
82Laura STONE23:52SW30-3462.15 %F4PB stays at 00:23:20252Member of the parkrun 250 ClubStrava logo
83Cherry-Beth HARWOOD23:53SW20-2461.97 %F5PB stays at 00:23:4518
84Gary KENT23:54SM25-2953.97 %M79New PB!2
85Ryan WEISSLER23:55SM20-2453.94 %M80New PB!6
86Dan WILKINSON23:58VM45-4960.08 %M81PB stays at 00:23:41130Member of the parkrun 100 Club
87Martin JOSTEN23:58VM65-6971.97 %M82PB stays at 00:21:35157Member of the parkrun 100 Club
88Bhapinder TOOR24:00VM45-4959.10 %M83PB stays at 00:19:32114Member of the parkrun 100 Club
89Sarah NEWBERY24:01VW50-5470.65 %F6PB stays at 00:23:1745
90David ROSS24:05VM45-4959.79 %M84Datchet DashersPB stays at 00:21:33145Member of the parkrun 100 Club
91James JUXON24:09SM20-2453.97 %M85First Timer!6
92Ian BEECH24:12VM50-5462.95 %M86New PB!18
93Joanna EDWARDS24:12VW45-4967.63 %F7PB stays at 00:23:44163Member of the parkrun 100 Club
94Derek SHAW24:13VM50-5462.42 %M87PB stays at 00:24:0546
95Mark JACKSON24:15VM45-4960.34 %M88PB stays at 00:23:0971Member of the parkrun 50 Club
96Russell COBB24:20VM50-5462.12 %M89PB stays at 00:23:4621
97Unknown
98Andrew MULFORD24:21VM50-5462.56 %M91PB stays at 00:23:40108Member of the parkrun 100 Club
99Unknown
100Thomas LLOYD24:23SM25-2952.90 %M93PB stays at 00:22:0421Strava logo
101Jasmine LASSLETT24:24SW20-2460.66 %F8Windsor, Slough, Eton & Hounslow ACPB stays at 00:22:4212
102Steve WELLS24:26VM60-6466.78 %M94Cleethorpes & District ACPB stays at 00:21:20250Member of the parkrun 250 Club
103Stacey CARPENTIER24:27SW20-2460.53 %F9Datchet DashersNew PB!2
104Rebeca BIRD24:28SW20-2460.49 %F10PB stays at 00:23:3312
105Gavin HAZELL24:29SM30-3453.10 %M95PB stays at 00:22:2739
106Dale HARRISON24:30SM30-3453.27 %M96First Timer!1Strava logo
107Nick GREATOREX24:31VM45-4959.69 %M97PB stays at 00:19:58284Member of the parkrun 250 Club
108Ella LEE24:32JW15-1762.36 %F11PB stays at 00:23:07171Member of the parkrun 100 Club
109Charlie GRAY24:36VM40-4455.49 %M98PB stays at 00:24:1447
110Mark STEVENS24:39VM45-4958.89 %M99PB stays at 00:19:45289Member of the parkrun 250 ClubStrava logo
111Robert DAVIES24:42VM40-4456.07 %M100PB stays at 00:22:3828
112Maureen PEDRI24:43VW60-6477.41 %F12Running Sisters NetworkPB stays at 00:24:03252Member of the parkrun 250 Club
113Justin ATKINSON24:45VM55-5963.16 %M101PB stays at 00:23:3142
114Paul DOCHERTY24:47VM55-5964.16 %M102PB stays at 00:23:5324
115Unknown
116Graham RICE24:49SM25-2951.98 %M104First Timer!1
117Nicola BOWERS24:52VW40-4462.33 %F13PB stays at 00:24:187Strava logo
118Vicky LALLY24:53VW45-4963.83 %F14First Timer!129Member of the parkrun 100 ClubStrava logo
119Mark KORINEK24:54VM40-4456.09 %M105PB stays at 00:20:5057Member of the parkrun 50 Club
120Rob CUTLER24:57VM35-3954.31 %M106New PB!2
121Niels WHITBY24:57SM18-1953.44 %M107PB stays at 00:23:34104Member of the parkrun 100 Club
122Dominic HOLLERON24:58VM45-4958.61 %M108PB stays at 00:24:2767Member of the parkrun 50 Club
123Neil POULSON24:59VM50-5459.51 %M109PB stays at 00:23:3577Member of the parkrun 50 Club
124Grace HARVEY24:59JW1070.25 %F15First Timer!2
125Unknown
126Stephen DELANEY25:00VM60-6466.47 %M111First Timer!177Member of the parkrun 100 Club
127Kristina SHAW25:02JW15-1760.39 %F16PB stays at 00:23:3756Member of the parkrun 50 Club
128David Anthony MORGAN25:03VM55-5961.34 %M112PB stays at 00:22:46328Member of the parkrun 250 Club
129Kris WOOLLARD25:04VM35-3953.26 %M113PB stays at 00:20:4685Member of the parkrun 50 Club
130James LEACH25:06VM50-5459.23 %M114PB stays at 00:23:12102Member of the parkrun 100 Club
131Charlotte SMITH25:07SW20-2458.93 %F17New PB!89Member of the parkrun 50 Club
132Surjit Singh BHACHU25:14VM40-4454.10 %M115PB stays at 00:23:4683Member of the parkrun 50 Club
133Samuel MORTON25:16SM18-1952.18 %M116New PB!3
134Steve METCALF25:16VM45-4957.92 %M117PB stays at 00:22:3384Member of the parkrun 50 Club
135Mark STEADMAN25:18SM25-2951.05 %M118PB stays at 00:24:077
136Sue TIPPING25:20VW50-5469.61 %F18PB stays at 00:23:51191Member of the parkrun 100 Club
137Gary DORMAND25:23VM50-5458.11 %M119PB stays at 00:22:3455Member of the parkrun 50 Club
138Nigel DOXFORD25:25VM60-6463.67 %M120PB stays at 00:21:08350Member of the parkrun 250 ClubStrava logo
139Paddy QUINN25:29VM45-4956.51 %M121PB stays at 00:24:1812
140Peter DEWBERY25:30SM30-3451.18 %M122First Timer!5Strava logo
141Lee STABLER25:33VM45-4957.27 %M123PB stays at 00:23:2119
142Natalie BATTEN25:34SW25-2957.89 %F19PB stays at 00:24:2319
143Unknown
144Stephen R MITCHELL25:35VM50-5458.57 %M125PB stays at 00:24:18180Member of the parkrun 100 Club
145Catherine STAUNTON25:38VW60-6475.68 %F20Chiltern Harriers ACPB stays at 00:24:11216Member of the parkrun 100 Club
146Nigel NAYLOR-SMITH25:39VM50-5457.50 %M126PB stays at 00:22:3675Member of the parkrun 50 Club
147Unknown
148John AYTON25:40VM45-4957.01 %M128First Timer!35
149John WHITBY25:41VM60-6462.43 %M129PB stays at 00:24:26219Member of the parkrun 100 Club
150Ted ARNOLD25:42SM25-2950.19 %M130PB stays at 00:22:278
151Scott RUSSELL25:43SM20-2450.16 %M131PB stays at 00:23:474Strava logo
152Amy CLARIDGE25:44SW30-3457.51 %F21Hillingdon TriathletesPB stays at 00:24:07100Member of the parkrun 100 Club
153Gillian MCALISTER25:44VW50-5466.77 %F22Hillingdon TriathletesPB stays at 00:21:1093Member of the parkrun 50 Club
154Alice CRAIGIE25:45SW20-2457.48 %F23PB stays at 00:25:2818
155Josh STROUD25:46SM20-2450.06 %M132First Timer!2
156Francis MAHER25:46VM40-4454.20 %M133PB stays at 00:21:46159Member of the parkrun 100 Club
157Daniel STURGESS25:47SM30-3450.61 %M134New PB!3
158Luke STRICKLAND25:48SM25-2950.06 %M135PB stays at 00:24:0449Strava logo
159Mathilda ANTONINI25:48SW25-2957.36 %F24PB stays at 00:25:3910
160Unknown
161Edna STEELE25:51VW45-4963.31 %F25PB stays at 00:25:0447
162Carolyn LOCKETT25:53VW55-5971.86 %F26Maidenhead ACPB stays at 00:23:03338Member of the parkrun 250 Club
163Kenny BURTON25:54SM30-3450.06 %M137New PB!3
164Fabio ANTONINI25:55SM25-2949.77 %M138PB stays at 00:25:448
165Mark GODDING25:55SM30-3449.90 %M139Datchet DashersPB stays at 00:25:3646
166David DORE25:58VM50-5458.22 %M140PB stays at 00:23:4967Member of the parkrun 50 Club
167Clive HEARNE26:00VM65-6966.35 %M141PB stays at 00:25:0728
168Steve TEDDS26:00SM30-3450.19 %M142PB stays at 00:21:1795Member of the parkrun 50 Club
169Rachel TEDDS26:01SW30-3456.89 %F27PB stays at 00:25:05105Member of the parkrun 100 Club
170Stuart PICKARD26:03VM40-4454.00 %M143New PB!9Strava logo
171Tracey MCDONALD26:05VW55-5969.39 %F28Hillingdon ACPB stays at 00:23:56144Member of the parkrun 100 Club
172Iqbal ALAM26:06VM60-6463.09 %M144PB stays at 00:24:32226Member of the parkrun 100 Club
173Amanda SILVEY26:07VW40-4458.90 %F29PB stays at 00:22:4386Member of the parkrun 50 Club
174Glyn HAYWOOD26:09VM40-4453.79 %M145PB stays at 00:22:5687Member of the parkrun 50 Club
175Kingsley THOMPSON26:13JM1062.36 %M146PB stays at 00:25:1313Member of the parkrun 10 Club
176Unknown
177Sharon BUNBY26:14VW50-5466.39 %F30PB stays at 00:25:2173Member of the parkrun 50 Club
178Gary ALDRIDGE26:14VM45-4954.89 %M148First Timer!171Member of the parkrun 100 Club
179Kerry SQUIRE26:25VW45-4960.13 %F31PB stays at 00:26:2031
180Tim KARBANI26:27VM50-5455.77 %M149PB stays at 00:24:4715
181Gary HOWARD26:29VM55-5958.53 %M150First Timer!67Member of the parkrun 50 Club
182Andy SHEPHARD26:34VM50-5456.90 %M151PB stays at 00:25:1430
183Colm MARTIN26:35SM20-2448.53 %M152First Timer!1
184Michael DEANUS26:37VM50-5455.42 %M153PB stays at 00:24:5413
185Alan HAYES26:40VM50-5456.19 %M154PB stays at 00:26:0814
186Jat DHONSI26:42VM40-4451.12 %M155PB stays at 00:25:139
187Neal CLARK26:47VM45-4954.20 %M156Hillingdon TriathletesPB stays at 00:24:2432Strava logo
188John DEVINE26:49VM50-5456.37 %M157PB stays at 00:23:2126Strava logo
189Hardeep BATH26:50VM45-4952.86 %M158Datchet DashersPB stays at 00:23:00104Member of the parkrun 100 Club
190Gary HOOK26:50VM45-4953.66 %M159PB stays at 00:23:35212Member of the parkrun 100 Club
191Malcolm UNDERHILL26:51VM55-5958.22 %M160PB stays at 00:23:09163Member of the parkrun 100 Club
192Brianna SMITH26:52SW18-1955.27 %F32PB stays at 00:26:2884Member of the parkrun 50 Club
193Michael MARTIN26:55VM40-4452.26 %M161PB stays at 00:24:4419
194Unknown
195Peter HOPKINS26:58VM45-4952.60 %M163PB stays at 00:26:1922
196Liz D'ARCY-EVANS27:02VW50-5465.23 %F33Handy Cross RunnersPB stays at 00:23:5345
197Tom HOWELLS27:07VM45-4952.30 %M164Hillingdon TriathletesPB stays at 00:24:1514
198Anthony SAVAGE27:10VM45-4953.87 %M165PB stays at 00:24:3354Member of the parkrun 50 ClubStrava logo
199Unknown
200Richard GOWER27:13VM40-4450.89 %M167PB stays at 00:22:32222Member of the parkrun 100 Club
201Stuart DIBLEY27:15VM55-5957.37 %M168PB stays at 00:25:58159Member of the parkrun 100 Club
202Carmen RENDELL27:18VW40-4457.20 %F34First Timer!48
203Steve ALLRIGHT27:20VM50-5454.39 %M169PB stays at 00:25:2729
204Richard WEISSLER27:21VM50-5454.36 %M170New PB!7
205Unknown
206Duncan WANBLAD27:22VM50-5453.90 %M172New PB!20Strava logo
207Harry GOWER27:23JM11-1454.29 %M173First Timer!1
208Guy THOMPSON27:25VM40-4450.94 %M174PB stays at 00:25:4121
209Lars HOUSTON27:25SM25-2947.05 %M175PB stays at 00:26:217
210Lucy WILSON27:26JW11-1460.63 %F35First Timer!41Member of the parkrun 10 Club
211Campbell WILSON27:27VM40-4451.24 %M176First Timer!62Member of the parkrun 50 ClubStrava logo
212Lyndsey DACRE27:27SW25-2953.92 %F36Burnham JoggersPB stays at 00:26:238
213Andrew OLIVER27:28VM45-4952.85 %M177PB stays at 00:23:28181Member of the parkrun 100 Club
214Rob LOWE27:28VM40-4450.85 %M178PB stays at 00:22:38169Member of the parkrun 100 Club
215Jessica COLLINS27:29SW30-3453.91 %F37Burnham JoggersPB stays at 00:24:1053Member of the parkrun 50 Club
216Simon DAWSON27:32VM45-4953.15 %M179PB stays at 00:22:3536
217Michael BOND27:33VM50-5454.39 %M180PB stays at 00:25:544
218Unknown
219David BAIRSTOW27:35SM25-2946.77 %M182First Timer!1
220Steve BREAGAN27:35VM40-4451.00 %M183PB stays at 00:21:01283Member of the parkrun 250 Club
221Steven DURRANT27:36SM30-3446.86 %M184First Timer!1
222Dean LEPLEY27:36VM50-5453.86 %M185New PB!5
223Steve JENKINS27:36VM45-4952.60 %M186Hazlemere RunnersNew PB!4Strava logo
224Manasi KUMAR27:37JW11-1456.91 %F38PB stays at 00:24:5644Member of the parkrun 10 Club
225David WILLIAMS27:37VM40-4449.43 %M187Ealing, Southall & Middlesex ACPB stays at 00:25:0488Member of the parkrun 50 Club
226Susannah CLEARY27:37VW35-3954.32 %F39Datchet DashersPB stays at 00:26:0317
227James HORNE27:42SM30-3446.93 %M188PB stays at 00:24:2676Member of the parkrun 50 Club
228Mark Derrick GREATOREX27:46VM55-5957.26 %M189PB stays at 00:22:53145Member of the parkrun 100 Club
229Peter DARKINS27:50VM60-6458.14 %M190PB stays at 00:21:39268Member of the parkrun 250 Club
230Unknown
231Dil PATEL27:51VM45-4952.54 %M192PB stays at 00:24:5142
232Richard HOPE27:54VM40-4450.42 %M193PB stays at 00:24:1316
233Carolyn FRYER27:56VW50-5463.13 %F40PB stays at 00:27:3668Member of the parkrun 50 Club
234Kierendeep SAHOTA27:58SW30-3452.92 %F41New PB!22
235Melanie Louise RATCLIFFE28:02VW40-4455.29 %F42PB stays at 00:25:04105Member of the parkrun 100 ClubStrava logo
236Ryan HUGHES28:03JM11-1454.55 %M194PB stays at 00:26:2717Member of the parkrun 10 Club
237David ROBINSON28:04SM20-2445.96 %M195First Timer!1
238Anil KUMAR28:05VM45-4951.28 %M196PB stays at 00:26:4167Member of the parkrun 50 Club
239Vicky HART28:05VW40-4455.19 %F43PB stays at 00:27:0445Strava logo
240Unknown
241Unknown
242Louise WELSFORD28:15VW55-5963.24 %F44Burnham JoggersPB stays at 00:24:4384Member of the parkrun 50 Club
243Jessica BEISHON28:16VW50-5461.62 %F45PB stays at 00:27:1274Member of the parkrun 50 Club
244Ellie HILBORNE28:17SW20-2452.33 %F46Clapham PioneersPB stays at 00:25:3313
245Antonia GARCIA28:19VW45-4956.09 %F47PB stays at 00:26:5041
246Manjit BIRK28:21VW40-4454.67 %F48New PB!4
247Sue CAMP28:22VW45-4957.11 %F49Ranelagh HarriersPB stays at 00:27:26175Member of the parkrun 100 Club
248Sally VIGURS28:23SW30-3452.38 %F50PB stays at 00:24:52111Member of the parkrun 100 Club
249Amanda KEEN28:26SW20-2452.05 %F51Burnham JoggersPB stays at 00:26:3943
250Jaimie-Leigh HUGHES28:28SW18-1952.58 %F52New PB!2
251Jack SIMPSON28:29SM18-1946.81 %M199PB stays at 00:27:034
252Brian MCMAHON28:30VM40-4449.36 %M200PB stays at 00:25:4882Member of the parkrun 50 Club
253Laminn-Thaynt MCMAHON28:31VW40-4454.76 %F53PB stays at 00:25:25146Member of the parkrun 100 Club
254Unknown
255Sarah COOK28:35VW50-5460.12 %F54PB stays at 00:26:41101Member of the parkrun 100 Club
256David Thomas MARSHALL28:36VM55-5954.20 %M202PB stays at 00:25:18208Member of the parkrun 100 Club
257Chris HILL28:39VM60-6456.49 %M203PB stays at 00:26:1739
258Holly MULVIHILL28:41SW30-3451.60 %F55PB stays at 00:25:29122Member of the parkrun 100 Club
259Keith HYLANDS28:43VM65-6960.71 %M204Hercules Wimbledon ACPB stays at 00:22:21108Member of the parkrun 100 Club
260Clara WETTON28:48VW40-4453.41 %F56PB stays at 00:27:3651Member of the parkrun 50 Club
261Malcolm WARD28:48VM65-6960.53 %M205PB stays at 00:26:5736
262Thomas FRANKS28:49JM15-1746.85 %M206PB stays at 00:22:4025Member of the parkrun 10 Club
263Donna CALDWELL28:50VW65-6971.39 %F57PB stays at 00:26:2144
264Emma MARCHANT28:50VW40-4454.16 %F58PB stays at 00:28:2827
265Ania UGORNA28:51VW35-3952.69 %F59New PB!19
266Kevin GURDIAL28:52VM35-3946.25 %M207PB stays at 00:23:2560Member of the parkrun 50 Club
267Kerrie HOPE28:53VW40-4454.07 %F60PB stays at 00:28:3434
268Chris John ROGAN28:54VM60-6456.46 %M208PB stays at 00:24:4639
269Julia BEECH28:56VW50-5460.20 %F61PB stays at 00:28:3052Member of the parkrun 50 Club
270Jenny LAING28:58VW50-5460.87 %F62PB stays at 00:27:4821
271Ruth MARSHALL29:00VW50-5460.80 %F63PB stays at 00:26:52113Member of the parkrun 100 Club
272Carl DE GROOT29:02VM35-3946.33 %M209PB stays at 00:24:345
273Peter SMITH29:03VM45-4949.57 %M210PB stays at 00:28:0216
274Pally BHOGAL29:05VM35-3945.33 %M211New PB!7
275Nick HOATH29:06VM40-4448.00 %M212PB stays at 00:26:43144Member of the parkrun 100 Club
276Hass KOUHI29:09VM65-6957.52 %M213PB stays at 00:27:1372Member of the parkrun 50 Club
277Gemma HUGHES29:10JW11-1454.74 %F64PB stays at 00:25:5642Member of the parkrun 10 Club
278Sarah MARSDEN29:10VW50-5458.17 %F65PB stays at 00:26:3164Member of the parkrun 50 Club
279Linda BARROW29:17VW50-5460.22 %F66PB stays at 00:27:4919
280David FORD29:19VM65-6957.76 %M214Burnham JoggersPB stays at 00:25:17127Member of the parkrun 100 Club
281Unknown
282Unknown
283Rob GILMOUR29:24VM60-6454.54 %M217New PB!18
284N T29:25VM35-3946.06 %M218PB stays at 00:24:2580Member of the parkrun 50 Club
285Anita STAUNTON29:26VW45-4954.47 %F67PB stays at 00:27:32112Member of the parkrun 100 Club
286Jenna WOOD29:26SW18-1950.45 %F68PB stays at 00:28:3929
287Chris PARKINSON-BEST29:28VM35-3945.31 %M219First Timer!151Member of the parkrun 100 ClubStrava logo
288Phillip EWINGS29:30SM25-2943.73 %M220First Timer!1
289Diane KENDALL29:31VW40-4452.91 %F69PB stays at 00:23:46182Member of the parkrun 100 Club
290Karen Anne PATTERSON29:31VW55-5963.02 %F70Hayes & Harlington Road RunnersPB stays at 00:28:44234Member of the parkrun 100 Club
291Fiona JAMIESON29:33VW50-5458.15 %F71PB stays at 00:27:03145Member of the parkrun 100 Club
292Paula WALKER29:36VW60-6466.50 %F72Chiltern Harriers ACPB stays at 00:28:00253Member of the parkrun 250 Club
293Samuel LONG29:37JM11-1448.96 %M221PB stays at 00:26:4623Member of the parkrun 10 Club
294Jim RODGERS29:39VM55-5952.73 %M222PB stays at 00:24:3882Member of the parkrun 50 Club
295Paul EWINGS29:39SM30-3444.01 %M223First Timer!1
296Andrew HAWKES29:41VM50-5451.32 %M224PB stays at 00:26:1592Member of the parkrun 50 Club
297John RICKMAN29:42VM70-7459.37 %M225Maidenhead ACPB stays at 00:22:53270Member of the parkrun 250 Club
298Elizabeth LONG29:47JW1057.30 %F73PB stays at 00:26:1422Member of the parkrun 10 Club
299Andy LONG29:47VM45-4947.96 %M226PB stays at 00:21:5359Member of the parkrun 50 Club
300Unknown
301Steve MAUNDER29:48VM45-4948.32 %M228PB stays at 00:26:2632
302Shaheen DENT29:49VW55-5962.38 %F74Chiltern Harriers ACPB stays at 00:27:48196Member of the parkrun 100 Club
303Maisie CAIRNS29:51JW15-1750.64 %F75PB stays at 00:26:0460Member of the parkrun 50 Club
304Alistair GIFFORD-MOORE29:52VM40-4447.10 %M229GOG Triathlon ClubPB stays at 00:23:177Strava logo
305Emily MALPAS-COKER29:53SW25-2949.53 %F76First Timer!1Strava logo
306Philip WOOLHOUSE29:54VM50-5449.33 %M230PB stays at 00:25:40304Member of the parkrun 250 Club
307Unknown
308Nick HANCOCK29:55VM35-3944.07 %M232Chiltern Harriers ACPB stays at 00:19:4127Strava logo
309Julie MARTIN29:57VW45-4954.65 %F77PB stays at 00:29:048
310Ashley OLIVER29:58SW25-2949.39 %F78PB stays at 00:26:338
311Harriet HUGHES29:58SW25-2949.39 %F79First Timer!1
312Darren LAVERTY29:58VM50-5449.61 %M233PB stays at 00:22:3438
313Hilary GRANT29:59VW55-5960.37 %F80PB stays at 00:27:41185Member of the parkrun 100 Club
314Sheena MACAULAY30:02VW35-3950.39 %F81PB stays at 00:28:4214
315Angela BUCKROYD30:02VW40-4450.94 %F82Ealing Eagles Running ClubPB stays at 00:28:1535
316Darren LOFTUS30:03VM45-4948.31 %M234Ealing Eagles Running ClubPB stays at 00:26:5165Member of the parkrun 50 Club
317Ava GIFFORD-MOORE30:03JW11-1454.19 %F83New PB!2
318George JOHNSON30:05VM75-7964.10 %M235PB stays at 00:27:27127Member of the parkrun 100 Club
319Unknown
320Rashpal KAUR30:08VW45-4953.21 %F84PB stays at 00:26:31107Member of the parkrun 100 Club
321Unknown
322Abigail FROBISHER30:10SW20-2449.06 %F85First Timer!2
323Seona MACGREGOR30:12VW45-4953.64 %F86PB stays at 00:26:2443
324Sarah MUNN30:12VW45-4953.09 %F87PB stays at 00:29:1144
325Jack DERRIMAN30:14JM11-1449.17 %M238PB stays at 00:29:3617Member of the parkrun 10 Club
326Paul DERRIMAN30:14VM40-4445.81 %M239PB stays at 00:21:3421
327Ewa SOLTYS30:15SW30-3449.26 %F88Ranelagh HarriersFirst Timer!44
328Paul WISEMAN30:17VM55-5952.06 %M240PB stays at 00:29:0113
329Unknown
330Keith STONE30:18VM35-3944.72 %M242PB stays at 00:24:5217
331Craig GRAHAM30:19VM45-4946.78 %M243PB stays at 00:26:4349Strava logo
332Unknown
333Amy KING30:19SW30-3449.04 %F89New PB!25
334Unknown
335Christine BLACK30:23VW50-5456.56 %F90PB stays at 00:28:1924
336Unknown
337Unknown
338Glyn WATKINS30:26VM60-6454.60 %M248Metros RCPB stays at 00:23:11363Member of the parkrun 250 ClubStrava logo
339Annabel GREATOREX30:26VW45-4954.44 %F91PB stays at 00:26:3396Member of the parkrun 50 Club
340Unknown
341Paulina WARD30:28VW50-5457.88 %F92PB stays at 00:29:1067Member of the parkrun 50 Club
342Karen CHAPMAN30:30VW55-5958.58 %F93Datchet DashersPB stays at 00:27:5568Member of the parkrun 50 Club
343Alan DRAY30:30VM60-6452.57 %M250Datchet DashersPB stays at 00:23:1862Member of the parkrun 50 Club
344David MCSHANE30:31VM50-5448.72 %M251Datchet DashersPB stays at 00:24:36159Member of the parkrun 100 Club
345Unknown
346John FREWIN30:33VM40-4446.04 %M253PB stays at 00:29:2116
347Alison GEE30:34VW55-5960.85 %F94New PB!3
348Unknown
349Unknown
350Bradley WARREN30:41SM30-3442.15 %M256PB stays at 00:27:168Strava logo
351Joanne HARRISON30:43VW50-5455.24 %F95PB stays at 00:30:40153Member of the parkrun 100 Club
352Beverly HUGHES30:43VW50-5454.58 %F96PB stays at 00:29:3145
353Andrew RIVAS30:45VM45-4946.45 %M257New PB!2
354Julie BARLOW30:50VW45-4951.51 %F97PB stays at 00:28:29113Member of the parkrun 100 Club
355Beatrice MARTIN30:53VW40-4450.19 %F98PB stays at 00:29:2939
356Nicola RICKETTS30:54VW35-3948.71 %F99PB stays at 00:30:489
357James WINTER30:57VM45-4946.53 %M258PB stays at 00:27:2338
358Alfie CHEEK31:01JM1052.71 %M259PB stays at 00:27:2710Member of the parkrun 10 Club
359Unknown
360Alan HARDY31:05VM60-6452.49 %M261PB stays at 00:27:41189Member of the parkrun 100 Club
361Nick CHEEK31:06VM40-4444.53 %M262PB stays at 00:20:0010
362Gino FERRIGGI31:06SM25-2941.48 %M263PB stays at 00:27:2174Member of the parkrun 50 Club
363Kevin HOLLIGAN31:08VM50-5447.75 %M264PB stays at 00:27:4949
364Jackie STALLWOOD31:10VW75-7977.81 %F100Datchet DashersPB stays at 00:26:31209Member of the parkrun 100 Club
365Mary LORD31:11VW55-5959.65 %F101Burnham JoggersPB stays at 00:28:23329Member of the parkrun 250 Club
366Dermot FISHER31:12VM55-5950.11 %M265Burnham JoggersPB stays at 00:23:19113Member of the parkrun 100 Club
367Jack MAJEWSKI31:16VM50-5447.55 %M266PB stays at 00:21:4694Member of the parkrun 50 Club
368Louisa JACKSON31:17VW40-4450.29 %F102PB stays at 00:30:5722
369Ella OWEN31:19JW11-1450.98 %F103PB stays at 00:28:12121Member of the parkrun 100 Club
370John PUSEY31:21VM45-4946.68 %M267Hillingdon TriathletesPB stays at 00:28:242
371Unknown
372April PATMORE31:28VW45-4952.01 %F104PB stays at 00:30:1635Strava logo
373Mark LAWTON31:34VM40-4443.56 %M269First Timer!9
374Alison HOOD31:37VW50-5454.35 %F105PB stays at 00:29:5942
375William PERRIN-COCON31:38JM11-1448.37 %M270PB stays at 00:30:029
376Mary WILLIS31:38VW65-6966.07 %F106PB stays at 00:30:1163Member of the parkrun 50 Club
377Unknown
378Ravi SAHOTA31:42VM35-3941.85 %M272PB stays at 00:28:5626
379Jean-Noel GROLEAU31:43VM40-4444.04 %M273PB stays at 00:27:3219
380Peter TOUGH31:44VM65-6953.83 %M274PB stays at 00:24:45135Member of the parkrun 100 Club
381Sam PHILLIPS31:46JM11-1446.80 %M275PB stays at 00:30:3028Member of the parkrun 10 Club
382Pauline PHILLIPS31:46VW45-4950.00 %F107PB stays at 00:30:4236
383H SINGH31:54VM50-5446.97 %M276PB stays at 00:29:5916
384Unknown
385Andrew LAUGHLAND31:56VM55-5949.37 %M278Wilson's SchoolPB stays at 00:28:39138Member of the parkrun 100 Club
386Mary SMITH31:59VW40-4447.84 %F108New PB!2
387Victoria CHILDS31:59SW30-3446.33 %F109PB stays at 00:24:2516
388Rachael LOGAN32:01SW20-2446.23 %F110PB stays at 00:30:3811
389Anita JAYADEV32:01VW35-3947.01 %F111New PB!3
390Jonathan WALPOLE32:01VM60-6451.43 %M279PB stays at 00:31:5124
391Mandy SILK32:03SW30-3446.49 %F112Hillingdon TriathletesPB stays at 00:28:362
392Peter CONNOLLY32:04VM35-3941.63 %M280PB stays at 00:30:1416
393Susan WOOD32:07VW40-4448.26 %F113PB stays at 00:32:0011Strava logo
394Ian TENCOR32:08VM55-5949.48 %M281PB stays at 00:31:5523
395Maria WALPOLE32:09VW55-5957.85 %F114PB stays at 00:32:026
396Deborah VALENTINE32:12VW55-5955.49 %F115PB stays at 00:30:336
397Tracy ROCHE32:14VW45-4949.74 %F116PB stays at 00:30:1231
398Adam COX32:14VM50-5446.12 %M282PB stays at 00:24:2038
399Unknown
400Unknown
401Chris DAVIES32:21VM55-5949.15 %M285PB stays at 00:29:33161Member of the parkrun 100 Club
402Rebecca DAVIS32:22JW11-1448.56 %F117DofEPB stays at 00:31:3615Member of the parkrun 10 Club
403Christopher DAVIS32:23VM45-4944.11 %M286PB stays at 00:23:5129
404Carol COOMBS32:23VW60-6459.08 %F118PB stays at 00:29:22310Member of the parkrun 250 Club
405Lorraine WARMAN32:25VW40-4448.17 %F119Handy Cross RunnersPB stays at 00:31:2512Strava logo
406Kate SHEPHARD32:30VW45-4949.85 %F120PB stays at 00:30:3728
407Unknown
408Julian BROMLEY32:34SM30-3440.07 %M288First Timer!7
409Pattie BERESFORD32:37VW65-6966.07 %F121Thames Valley Orienteering ClubPB stays at 00:31:3125
410Elisabeth FRANKS32:50JW11-1447.87 %F122PB stays at 00:32:0115Member of the parkrun 10 Club
411Judi NEWNS32:50VW50-5451.68 %F123New PB!2
412Vanessa HILL32:51SW20-2445.05 %F124PB stays at 00:29:296
413Jo KINSEY32:53VW40-4447.14 %F125PB stays at 00:29:3911
414Isobel SWANN32:57JW15-1747.04 %F126Chiltern Harriers ACPB stays at 00:25:0228Member of the parkrun 10 Club
415Neelum JOSHI32:59JW15-1745.83 %F127PB stays at 00:30:3315Member of the parkrun 10 Club
416Abi PATERSON32:59JW15-1746.99 %F128First Timer!1
417Amelia TURNER33:03SW25-2944.78 %F129New PB!2
418Jill GILMOUR33:04VW55-5955.49 %F130New PB!24
419Avtar Singh BHOGAL33:04VM60-6448.94 %M289PB stays at 00:32:4926
420Victoria PAXTON33:05SW25-2944.74 %F131PB stays at 00:30:1812
421Unknown
422Naseem LISTER33:11VW60-6460.17 %F132Burnham JoggersPB stays at 00:27:3676Member of the parkrun 50 Club
423Abigail MORIARTY33:12SW20-2444.58 %F133Hayes & Harlington Road RunnersPB stays at 00:32:3536
424Rose O'NEILL33:15VW70-7466.97 %F134PB stays at 00:28:49257Member of the parkrun 250 Club
425Charlotte WALKER33:15JW11-1447.27 %F135PB stays at 00:32:035
426Shona LOWE33:16VW50-5451.00 %F136PB stays at 00:29:5356Member of the parkrun 50 Club
427Lisa PETRE33:17VW45-4947.72 %F137New PB!2
428Sam POOK33:19SM30-3439.02 %M291PB stays at 00:30:465
429Gary STRICKLAND33:20VM50-5445.70 %M292PB stays at 00:32:349
430Krisztina WORMALD33:21VW35-3945.58 %F138New PB!4
431Helen DAY33:24VW45-4949.60 %F139PB stays at 00:32:3319
432Denise NISBET33:26VW50-5452.09 %F140Hayes & Harlington Road RunnersPB stays at 00:30:44105Member of the parkrun 100 Club
433Unknown
434Helen NEWMAN33:28VW50-5450.10 %F141PB stays at 00:29:3190Member of the parkrun 50 Club
435Lisa CHAPMAN33:30VW40-4446.27 %F142First Timer!1
436Olivia FOLEY33:31VW45-4947.84 %F143PB stays at 00:30:5335
437Linda NISBET33:32SW20-2444.14 %F144PB stays at 00:30:5672Member of the parkrun 50 Club
438Steven JOYCE33:32SM30-3439.12 %M294New PB!2
439Unknown
440Unknown
441Katie HILL33:36SW20-2444.05 %F145PB stays at 00:32:2711
442Nicola FORSTER33:36VW45-4947.72 %F146Ealing Eagles Running ClubPB stays at 00:29:1835
443Monika DUDZIC33:38SW30-3444.30 %F147PB stays at 00:28:1720
444Unknown
445Yestin LINTON-SMITH33:43VM55-5946.37 %M298New PB!9
446Dawn FAIRCLOUGH33:45VW50-5449.68 %F148PB stays at 00:29:1742
447Julie ROONEY33:46VW45-4948.47 %F149PB stays at 00:32:2075Member of the parkrun 50 Club
448Katie CUBBAGE33:51SW20-2443.72 %F150MudstacleFirst Timer!13
449Jennifer NEWMAN33:56SW20-2443.61 %F151PB stays at 00:31:253
450Kerry WALKER34:05SW30-3443.42 %F152New PB!2
451John WALKER34:06VM65-6950.10 %M299PB stays at 00:26:48172Member of the parkrun 100 Club
452David MATTHEW34:07VM35-3939.72 %M300First Timer!1
453George WALTERS34:10JM1046.20 %M301PB stays at 00:31:1216Member of the parkrun 10 Club
454Sandhya TYAGI34:11VW35-3944.03 %F153PB stays at 00:32:273
455Chris CALLOWAY34:14VM60-6446.84 %M302PB stays at 00:29:0051Member of the parkrun 50 Club
456Pami AHLUWALIA34:18VW35-3944.31 %F154PB stays at 00:31:005Strava logo
457Wendy SMITH34:19VW55-5952.74 %F155PB stays at 00:33:55174Member of the parkrun 100 Club
458Unknown
459Tracy KEENE34:20VW50-5450.05 %F156PB stays at 00:30:3731
460Unknown
461Unknown
462Daniel CROW34:26VM40-4439.64 %M306New PB!2
463Alison NORMAN34:30VW55-5951.79 %F157PB stays at 00:33:0818
464J EDUH34:31SM25-2937.37 %M307PB stays at 00:31:4021
465L HAY34:31VW35-3943.60 %F158PB stays at 00:28:2122
466Chloe WALKER34:33JW1049.40 %F159PB stays at 00:31:1513Member of the parkrun 10 Club
467Francesca AINSWORTH34:33SW30-3442.84 %F160CSSC Sports & LeisurePB stays at 00:33:5140
468Maria LEE34:34VW40-4444.26 %F161PB stays at 00:29:4533
469Tansie DAVIES34:34JW1049.37 %F162PB stays at 00:31:2638Member of the parkrun 10 Club
470Roderick PATON34:38VM75-7954.72 %M308Hillingdon TriathletesPB stays at 00:28:37123Member of the parkrun 100 Club
471Jackie HOLLAND34:39VW45-4947.23 %F163PB stays at 00:28:35107Member of the parkrun 100 Club
472Sarah WILSON34:43VW50-5450.17 %F164PB stays at 00:29:13226Member of the parkrun 100 Club
473Graham HILL34:46VM40-4439.55 %M309PB stays at 00:29:3687Member of the parkrun 50 Club
474Stephen CAIRNS34:54VM45-4941.93 %M310PB stays at 00:28:0589Member of the parkrun 50 Club
475Evangeline REUBEN34:55SW25-2942.39 %F165PB stays at 00:28:4518
476Anna HODSON34:58VW35-3943.28 %F166PB stays at 00:23:59146Member of the parkrun 100 Club
477Cheryl WALSH35:00SW30-3442.57 %F167PB stays at 00:31:525
478Lucy BOWRING35:01VW35-3943.41 %F168Datchet DashersPB stays at 00:30:4646
479Katie ALLEN35:01SW25-2942.27 %F169PB stays at 00:33:394
480Danny MACLEAN35:09VM55-5944.48 %M311PB stays at 00:27:2421
481Lindsey BLAKE35:14VW45-4947.02 %F170PB stays at 00:26:3634
482Sukjit SINGH35:15VM55-5944.35 %M312Burnham JoggersPB stays at 00:23:3697Member of the parkrun 50 Club
483Jennifer WRIGHT35:16VW50-5447.54 %F171PB stays at 00:29:1450Member of the parkrun 50 Club
484Harjit PADDA35:19VM40-4438.93 %M313PB stays at 00:26:5235
485Tina PHILLIPS35:23VW40-4443.48 %F172PB stays at 00:29:3417
486Helen OSBORNE35:23SW30-3441.83 %F173Handy Cross RunnersPB stays at 00:24:36142Member of the parkrun 100 Club
487Kartik LUTHRA35:24SM30-3436.72 %M314PB stays at 00:27:1132
488Arun JOSHI35:24SM30-3436.72 %M315PB stays at 00:23:4719Strava logo
489Aryan SHARMA35:25JM1046.16 %M316New PB!23Member of the parkrun 10 Club
490Liz SEDLEY35:26VW45-4944.83 %F174New PB!28
491Unknown
492Unknown
493M KAUR35:31VW50-5449.04 %F175New PB!17
494B SINGH35:31SM25-2936.32 %M319PB stays at 00:21:2516
495Unknown
496Emma MITCHELL35:33SW30-3441.63 %F176First Timer!2
497Michelle HOPKINS35:34SW30-3441.61 %F177First Timer!3
498Unknown
499Lydia DOUGLAS35:37SW25-2941.55 %F178PB stays at 00:34:169
500Caron KIPPING35:46VW45-4946.32 %F179PB stays at 00:35:188
501Nihal DHATT35:47JM1052.26 %M322New PB!2
502Mantej DHATT35:47VM40-4439.03 %M323PB stays at 00:24:51135Member of the parkrun 100 Club
503Jakiran HAYRE35:49SW25-2941.32 %F180PB stays at 00:34:285
504Aoife O'GRADY35:51SW25-2941.28 %F181PB stays at 00:33:2010
505Unknown
506Bob LOGAN35:55VM60-6446.26 %M325PB stays at 00:35:299
507Katie LIDDLE35:58JW15-1742.54 %F182PB stays at 00:31:326
508Andrea CHAMBERS36:00VW40-4443.06 %F183PB stays at 00:28:52111Member of the parkrun 100 Club
509Fleur DAVIES36:06JW1050.18 %F184PB stays at 00:31:2636Member of the parkrun 10 Club
510Louise DAVIES36:07SW30-3441.26 %F185Burnham JoggersPB stays at 00:23:3442
511Allan MACKAY36:24VM45-4939.88 %M326PB stays at 00:29:28121Member of the parkrun 100 Club
512Anne GLENNON36:34VW50-5448.22 %F186PB stays at 00:32:5233
513Rachael PHILLIPS36:34SW30-3440.57 %F187PB stays at 00:35:286
514Unknown
515Emma O'DRISCOLL36:39VW40-4442.61 %F188PB stays at 00:33:086
516Unknown
517Sheila O'NEILL36:50VW65-6958.51 %F189PB stays at 00:32:52252Member of the parkrun 250 Club
518Nichola WARE36:53VW45-4944.92 %F190First Timer!25
519Vinni KLAIR36:54VW35-3940.65 %F191PB stays at 00:36:395
520Unknown
521Claire SMITH36:59SW30-3440.06 %F192#FriendsThatRunFirst Timer!1
522Jenny COLLAR37:02VW40-4441.85 %F193PB stays at 00:33:406
523Rich J WHITAKER37:03VM40-4437.70 %M330PB stays at 00:36:4316Strava logo
524Mark A THOMPSON37:16VM60-6443.78 %M331PB stays at 00:27:197
525Tracy LOBJOIT37:19VW50-5445.47 %F194PB stays at 00:30:4733
526Unknown
527Yvette DUMLER37:28VW65-6956.63 %F195Burnham JoggersPB stays at 00:25:08172Member of the parkrun 100 Club
528Hayley ROSE37:31SW25-2939.45 %F196New PB!2
529Elaine COBB37:32VW40-4440.99 %F197PB stays at 00:31:2348
530Hannah D'CRUZE37:34SW30-3439.44 %F198First Timer!1
531Neil D'CRUZE37:36VM35-3935.51 %M333First Timer!1
532Eli MERCHANT37:41VW45-4942.99 %F199PB stays at 00:27:3298Member of the parkrun 50 Club
533Peter RICHES37:44VM65-6945.27 %M334Thames Valley Orienteering ClubPB stays at 00:30:5413
534Jayne BROOKS37:48VW45-4942.86 %F200PB stays at 00:36:439
535Surajit PANDA37:57VM35-3935.70 %M335First Timer!30
536Subhendu MOHANTY38:02VM40-4435.89 %M336PB stays at 00:31:004
537Angela BRIGGS38:03VW45-4942.58 %F201Dash for FitnessPB stays at 00:35:3349
538Sue BREE38:08VW55-5948.78 %F202#runforfunPB stays at 00:29:09203Member of the parkrun 100 Club
539Sanita SHARMA38:08VW40-4440.12 %F203PB stays at 00:29:5053Member of the parkrun 50 Club
540Carol HOADE38:16VW55-5949.30 %F204PB stays at 00:34:3914
541Kate CALLOWAY38:18VW55-5949.26 %F205PB stays at 00:36:1652Member of the parkrun 50 Club
542Harbhajan Kaur BHOGAL38:19VW55-5948.54 %F206PB stays at 00:37:4516
543Verity MITCHELL38:26JW1044.41 %F207PB stays at 00:27:55108Member of the parkrun 100 Club
544Magdalena BOGDAN38:27VW40-4440.62 %F208First Timer!1
545Russell COOK38:28VM55-5940.99 %M337PB stays at 00:32:0294Member of the parkrun 50 Club
546Mollie JARDELLA38:29JW1045.60 %F209PB stays at 00:34:5719Member of the parkrun 10 Club
547Unknown
548Unknown
549Mamatha KUMAR38:38VW45-4941.93 %F210PB stays at 00:36:2637
550Maggie LAZENBY38:41VW55-5947.44 %F211PB stays at 00:38:2322
551Frances ALCOCK39:01VW55-5948.36 %F212PB stays at 00:28:52162Member of the parkrun 100 Club
552Emily JARDELLA39:07JW1043.63 %F213PB stays at 00:37:0519Member of the parkrun 10 Club
553Heather DOXFORD39:09VW55-5946.23 %F214New PB!3
554Keith SELDON39:09VM60-6440.95 %M340Hillingdon ACPB stays at 00:23:2744
555Frances JARDELLA39:16VW35-3938.71 %F215PB stays at 00:33:2422
556Gina MORRELL39:17VW45-4940.43 %F216PB stays at 00:38:337
557Grant CHARLESTON39:18VM50-5438.76 %M341Defence Sports & RecreationPB stays at 00:20:41127Member of the parkrun 100 Club
558Sharron LEWIN39:22VW55-5947.25 %F217PB stays at 00:34:57146Member of the parkrun 100 Club
559Unknown
560Allison HADWIN39:38VW50-5443.94 %F218PB stays at 00:32:36181Member of the parkrun 100 Club
561Unknown
562Chrissy CONNOLLY39:47SW30-3437.37 %F219PB stays at 00:33:4216
563Rosie MOUNTAIN39:50VW40-4439.21 %F220PB stays at 00:39:084Strava logo
564Siobhan CHANA40:03VW50-5444.03 %F221PB stays at 00:34:51206Member of the parkrun 100 Club
565Suki CHANA40:03VM45-4936.54 %M344PB stays at 00:28:1064Member of the parkrun 50 Club
566Debbie MORTON40:10VW50-5442.78 %F222New PB!21
567Alexandra ROONEY40:18SW20-2436.72 %F223PB stays at 00:35:338
568Annette REEVES40:19VW45-4940.60 %F224PB stays at 00:33:3429
569Pat SULLIVAN40:20VW45-4941.07 %F225PB stays at 00:39:2122
570Unknown
571Unknown
572Unknown
573Lucy FOSTER40:31VW40-4437.76 %F226Run Mummy RunPB stays at 00:37:2615Strava logo
574Tony NIGHTINGILL41:02VM60-6440.50 %M348PB stays at 00:37:0417Strava logo
575Lily BREEN41:09JW1047.47 %F227First Timer!1
576India RISHIRAJ41:10JW1047.45 %F228First Timer!1
577Kathleen BREEN41:11VW50-5440.71 %F229PB stays at 00:31:3823
578Sushil RISHIRAJ41:12VW35-3936.53 %F230First Timer!1
579Karen DAVIES41:23VW40-4438.02 %F231PB stays at 00:40:5734
580Albie WALLIS41:32JM1042.86 %M349PB stays at 00:40:043
581Sian FRENCH41:35VW35-3936.19 %F232PB stays at 00:40:575
582Martin STEWART41:41VM70-7444.70 %M350PB stays at 00:40:2056Member of the parkrun 50 Club
583Unknown
584Colin Leslie CORK42:07VM70-7444.24 %M352PB stays at 00:34:46101Member of the parkrun 100 Club
585Unknown
586Paula DAWSON42:41VW45-4938.81 %F233PB stays at 00:36:3937
587Susan WHITAKER42:57VW35-3935.23 %F234PB stays at 00:37:4728Strava logo
588Jason SMITH43:04VM45-4933.71 %M354PB stays at 00:36:414
589Faith NAUGHTON43:16SW20-2434.21 %F235First Timer!1
590Phu WONG43:33VW40-4435.86 %F236PB stays at 00:33:15119Member of the parkrun 100 Club
591Natalie CORNEY44:02VW35-3934.18 %F237Defence Sports & RecreationPB stays at 00:27:4528
592Paul CORNEY44:02SM30-3429.79 %M355Hillingdon TriathletesPB stays at 00:17:3352Member of the parkrun 50 Club
593Lauren MARCHANT44:10JW11-1436.87 %F238PB stays at 00:34:4517Member of the parkrun 10 Club
594April WOLFE44:13JW1039.69 %F239New PB!3
595Lily CHEEK44:15JW11-1437.59 %F240PB stays at 00:34:084
596Matthew FENWICK44:23SM25-2929.10 %M356New PB!4
597Wendy DEAMER44:30VW55-5940.15 %F241PB stays at 00:35:5830
598Aaron PATTERSON44:35JM11-1434.32 %M357PB stays at 00:35:084
599Katie PATTERSON44:37SW30-3433.25 %F242New PB!2
600Anne-Marie WOLFE44:59SW25-2932.90 %F243PB stays at 00:40:432
601Krystal GALLAGHER44:59SW25-2932.90 %F244First Timer!1
602Jo SHEPHERD45:03VW40-4434.92 %F245PB stays at 00:32:1686Member of the parkrun 50 Club
603Grace WALTERS45:05JW11-1436.89 %F246PB stays at 00:37:1114Member of the parkrun 10 Club
604Dee WALTERS45:06VW40-4434.37 %F247PB stays at 00:30:3928
605Rachhpal BATH46:34VM85-8952.18 %M358Datchet DashersPB stays at 00:29:22179Member of the parkrun 100 Club
606Gemma KERR46:45SW30-3431.73 %F248PB stays at 00:43:273
607Kim ANDERTON46:49VW50-5437.66 %F249PB stays at 00:44:2232
608Jeff ANDERTON46:50VM60-6434.23 %M359PB stays at 00:41:2728
609Unknown
610Unknown
611Raymond John HOYLE47:51VM75-7939.60 %M362Watford Harriers ACPB stays at 00:37:50241Member of the parkrun 100 Club
612Unknown
613Unknown
614Annie EASTMOND48:42JW11-1433.44 %F250First Timer!1
615Unknown
616Unknown
617Julie ALLEN49:06VW55-5938.42 %F251New PB!3
618Janine MEPHAM49:07SW30-3430.34 %F252PB stays at 00:44:205
619Unknown
620Unknown
621Amelia WALLIS49:36JW1034.41 %F253PB stays at 00:45:182
622Dennis WALLIS49:37VM50-5430.20 %M369PB stays at 00:35:495
623Jane REES49:42VW50-5433.74 %F254First Timer!1
624Angie WALKER51:34VW65-6939.92 %F255PB stays at 00:37:36135Member of the parkrun 100 Club
625Kathryn SMALES55:20VW60-6434.58 %F256PB stays at 00:33:28264Member of the parkrun 250 Club
626Vanessa BARNARD1:01:54VW50-5427.09 %F257PB stays at 00:48:5045
627Janett BAKER1:01:56VW50-5428.12 %F258PB stays at 00:43:5991Member of the parkrun 50 ClubStrava logo

Thanks to the volunteers

We are very grateful to the volunteers who made this event happen:Barbara ALLEN, Fred ASHFORD, Arjun BABHANIA, Janett BAKER, Harsha BURTON, Minnie CROSS, Stuart R EVANS, Laura HAWKINS, Adam HORSFIELD, Raymond John HOYLE, Madeline KATTA-WORAE, Diane KENDALL, Marie KOUHI, Shona LOWE, Alex MARTIN, Audrey PARSONS, Holly PHILLIPS, David PRIDDY, Jaskaran Singh SALL, Ian SMALES, Will SMALES, Bob STANBROOK, Martin STEWART, Ollie STRIDE, John TIPPING, Andy TORRANCE, Jane TRAFFORD

Why not get involved and volunteer?

What is this table?

This table shows the complete results for the specified week at this event. It is automatically shown when you navigate to the results page, but can also be reached by clicking on Latest Results, or by picking a specific week from the Event History table. If you bookmark the Latest Results page in your browser, the bookmark will always take you to the most up to date results table. If you bookmark a results page reached via the Event History table, the bookmark will then always take you to that specific week's results.

The columns

  • Pos - the runner's overall position in the run.
  • parkrunner - is the registered name of the athlete; clicking on the name takes you to that athlete's results page for this event.
  • Time - is the runner's recorded time - we record the overall time between the run director's start instruction and the runner crossing the finish line.
  • Age Cat - represents the age category of the runner on the day of the run; the first letter represents the major age categories (J)unior, (S)enior and (Veteran); the second letter represents gender (M)en and (W)omen; the remainder of the category represents a more specific age range. There are two further categories for wheel chair users; WWC and MWC represent Women and Men respectively. Clicking on the result category takes you to that age categories' historical record for this event.
  • Age Grade
  • - Gives an indication of how well the runner has done relative to their age and gender see the FAQ article for more information.
  • Gender - (M)ale or (F)emale
  • Gender Pos- Gender finish positions.
  • Club - Running club if registered.
  • Note - Note - Comments about PBs (Personal Bests).
  • Total Runs - Total number of runs across all parkruns, an indicator of membership of the various parkrun clubs, and their links with partner websites.

As with any of the results tables, the table can be sorted by any column by clicking on the column heading.